Time;durP1;ratioP1;P1;durP2;ratioP2;P2;SDS_P1;SDS_P2;PMS_P1;PMS_P2;Temp;Humidity;BMP_temperature;BMP_pressure;BME280_temperature;BME280_humidity;BME280_pressure;Samples;Min_cycle;Max_cycle;Signal;HPM_P1;HPM_P2
2023/07/13 04:16:55;;;;;;;7.28;4.50;;;;;;;21.12;100.00;99967.94;5570335;32;187439;-84
2023/07/13 04:19:59;;;;;;;7.15;4.25;;;;;;;21.12;100.00;99989.50;5548515;32;33505;-85
2023/07/13 04:23:01;;;;;;;7.82;4.00;;;;;;;21.16;100.00;100008.09;5547886;32;34580;-85
2023/07/13 04:26:06;;;;;;;5.18;4.00;;;;;;;21.23;100.00;100023.47;5546913;32;34330;-85
2023/07/13 04:29:08;;;;;;;5.30;4.55;;;;;;;21.31;100.00;100021.88;5548508;32;33700;-84
2023/07/13 04:32:11;;;;;;;4.30;3.75;;;;;;;21.31;100.00;100017.31;5551161;32;34100;-84
2023/07/13 04:35:14;;;;;;;6.50;4.07;;;;;;;21.43;100.00;100022.47;5550542;32;34130;-85
2023/07/13 04:38:17;;;;;;;6.18;3.67;;;;;;;21.60;100.00;100016.19;5549523;32;34040;-85
2023/07/13 04:41:21;;;;;;;5.75;3.62;;;;;;;21.63;100.00;100025.84;5549952;32;33688;-85
2023/07/13 04:44:24;;;;;;;5.28;3.50;;;;;;;21.68;100.00;100027.03;5550032;32;33996;-85
2023/07/13 04:47:30;;;;;;;4.22;3.60;;;;;;;21.83;100.00;100036.47;5569247;32;33778;-85
2023/07/13 04:50:36;;;;;;;8.07;3.90;;;;;;;21.65;100.00;100046.28;5569081;32;33916;-84
2023/07/13 04:53:38;;;;;;;7.28;4.03;;;;;;;21.59;100.00;100052.28;5573325;32;34128;-85
2023/07/13 04:56:41;;;;;;;5.62;4.28;;;;;;;21.72;100.00;100061.88;5569040;32;34195;-85
2023/07/13 04:59:44;;;;;;;9.23;3.90;;;;;;;21.66;100.00;100066.00;5567864;32;33758;-85
2023/07/13 05:02:47;;;;;;;6.22;3.90;;;;;;;21.57;100.00;100080.44;5568003;32;33514;-85
2023/07/13 05:06:19;;;;;;;6.30;3.70;;;;;;;21.43;100.00;100096.19;5571255;32;33918;-85
2023/07/13 05:09:22;;;;;;;8.20;3.95;;;;;;;21.22;100.00;100118.06;5555327;32;35811;-85
2023/07/13 05:12:24;;;;;;;5.18;3.97;;;;;;;21.16;100.00;100153.72;5566574;32;33896;-84
2023/07/13 05:15:27;;;;;;;8.57;3.70;;;;;;;21.13;100.00;100195.31;5563783;32;33727;-84
2023/07/13 05:18:31;;;;;;;9.90;3.80;;;;;;;21.16;100.00;100215.75;5564373;32;33475;-85
2023/07/13 05:21:34;;;;;;;11.85;4.43;;;;;;;21.14;100.00;100230.22;5563726;32;34449;-85
2023/07/13 05:24:37;;;;;;;9.40;4.07;;;;;;;21.00;100.00;100244.19;5558018;31;34156;-84
2023/07/13 05:27:40;;;;;;;8.85;4.03;;;;;;;20.66;100.00;100240.16;5572861;32;34438;-84
2023/07/13 05:30:47;;;;;;;9.80;3.97;;;;;;;20.23;100.00;100219.94;5570741;32;34517;-84
2023/07/13 05:33:50;;;;;;;5.78;3.50;;;;;;;19.77;100.00;100212.44;5569885;32;34372;-84
2023/07/13 05:36:53;;;;;;;9.38;4.22;;;;;;;19.66;100.00;100219.63;5570531;32;33717;-88
2023/07/13 05:39:56;;;;;;;3.50;3.15;;;;;;;19.38;100.00;100229.34;5574594;32;34000;-88
2023/07/13 05:42:58;;;;;;;3.75;3.25;;;;;;;19.49;100.00;100226.56;5573017;32;34476;-88
2023/07/13 05:46:02;;;;;;;6.05;3.70;;;;;;;19.47;100.00;100216.91;5572625;32;33698;-87
2023/07/13 05:49:05;;;;;;;3.53;3.03;;;;;;;19.35;100.00;100208.97;5572583;32;33601;-83
2023/07/13 05:52:08;;;;;;;4.80;3.22;;;;;;;19.21;100.00;100207.50;5572006;32;33454;-84
2023/07/13 05:55:11;;;;;;;4.50;2.83;;;;;;;19.23;100.00;100205.53;5573191;32;33943;-84
2023/07/13 05:58:14;;;;;;;4.25;2.67;;;;;;;19.09;100.00;100217.53;5550778;32;34000;-84
2023/07/13 06:01:17;;;;;;;11.10;3.12;;;;;;;19.03;100.00;100196.56;5552314;32;33690;-83
2023/07/13 06:04:20;;;;;;;7.25;3.60;;;;;;;18.76;100.00;100186.37;5552901;32;34775;-85
2023/07/13 06:07:23;;;;;;;4.47;3.28;;;;;;;18.75;100.00;100192.72;5553390;32;34028;-84
2023/07/13 06:10:26;;;;;;;5.07;3.60;;;;;;;18.53;100.00;100187.41;5553242;32;34502;-84
2023/07/13 06:13:28;;;;;;;8.00;3.70;;;;;;;18.36;100.00;100164.66;5551839;32;33685;-84
2023/07/13 06:16:31;;;;;;;8.50;4.45;;;;;;;18.24;100.00;100130.81;5553020;32;33512;-82
2023/07/13 06:19:34;;;;;;;4.32;3.55;;;;;;;18.17;100.00;100079.50;5548042;32;33724;-82
2023/07/13 06:22:37;;;;;;;6.72;3.72;;;;;;;17.96;100.00;99905.09;5551348;32;32815;-83
2023/07/13 06:25:40;;;;;;;5.50;3.58;;;;;;;18.07;100.00;99818.28;5542430;32;33604;-83
2023/07/13 06:28:44;;;;;;;4.00;3.25;;;;;;;18.14;100.00;99918.72;5538008;32;33926;-82
2023/07/13 06:31:46;;;;;;;3.95;3.00;;;;;;;18.08;100.00;99884.38;5545069;32;33680;-83
2023/07/13 06:34:51;;;;;;;3.20;2.90;;;;;;;18.08;100.00;99823.50;5540164;32;34568;-82
2023/07/13 06:37:54;;;;;;;4.20;2.78;;;;;;;18.16;100.00;99815.59;5531642;32;34063;-82
2023/07/13 06:40:57;;;;;;;7.25;3.30;;;;;;;18.26;100.00;99842.44;5543439;32;34672;-83
2023/07/13 06:44:00;;;;;;;2.90;2.33;;;;;;;18.35;100.00;99837.25;5552256;32;33680;-82
2023/07/13 06:47:03;;;;;;;4.15;2.70;;;;;;;18.61;100.00;99852.81;5551040;32;33829;-82
2023/07/13 06:50:06;;;;;;;4.05;2.70;;;;;;;18.76;100.00;99862.09;5551332;32;34489;-82
2023/07/13 06:53:10;;;;;;;2.97;2.70;;;;;;;18.85;100.00;99857.72;5538962;32;33327;-83
2023/07/13 06:56:13;;;;;;;4.18;2.78;;;;;;;19.01;100.00;99854.44;5537750;32;33693;-83
2023/07/13 06:59:15;;;;;;;2.55;2.35;;;;;;;19.51;100.00;99828.31;5538437;32;34461;-83
2023/07/13 07:02:18;;;;;;;4.62;2.97;;;;;;;19.84;100.00;99844.84;5543018;32;34221;-83
2023/07/13 07:05:24;;;;;;;7.12;2.60;;;;;;;20.25;100.00;99863.34;5543718;32;33909;-82
2023/07/13 07:08:26;;;;;;;3.58;2.45;;;;;;;20.68;100.00;99844.72;5542624;32;33583;-82
2023/07/13 07:11:29;;;;;;;3.08;2.50;;;;;;;21.05;100.00;99866.25;5536872;32;33782;-84
2023/07/13 07:14:34;;;;;;;3.53;2.53;;;;;;;21.57;100.00;99870.78;5549856;32;34204;-84
2023/07/13 07:17:37;;;;;;;6.55;2.87;;;;;;;21.67;100.00;99911.13;5562130;32;34077;-83
2023/07/13 07:20:39;;;;;;;2.65;2.45;;;;;;;22.41;100.00;100001.62;5555695;32;33474;-84
2023/07/13 07:23:43;;;;;;;4.20;2.50;;;;;;;22.41;100.00;99998.94;5562084;32;34194;-84
2023/07/13 07:26:46;;;;;;;4.57;3.08;;;;;;;23.15;100.00;100012.66;5557576;32;33944;-83
2023/07/13 07:29:52;;;;;;;4.25;2.45;;;;;;;22.75;100.00;100014.28;5559098;32;34603;-83
2023/07/13 07:33:14;;;;;;;3.62;2.70;;;;;;;23.19;100.00;100029.41;5558098;32;34668;-83
2023/07/13 07:36:17;;;;;;;3.45;2.90;;;;;;;22.86;100.00;100049.12;5555764;32;35064;-85
2023/07/13 07:39:23;;;;;;;4.10;2.92;;;;;;;22.72;100.00;100045.19;5552112;32;33782;-87
2023/07/13 07:42:26;;;;;;;5.05;2.87;;;;;;;23.04;100.00;100053.56;5540913;32;33181;-89
2023/07/13 07:45:28;;;;;;;4.72;3.08;;;;;;;22.76;100.00;100048.41;5545906;32;34345;-89
2023/07/13 07:48:31;;;;;;;3.58;3.10;;;;;;;23.06;100.00;100054.25;5548494;32;34770;-89
2023/07/13 07:51:34;;;;;;;6.05;3.10;;;;;;;23.60;100.00;100068.34;5545110;32;33918;-90
2023/07/13 07:54:37;;;;;;;3.35;2.80;;;;;;;23.60;100.00;100080.03;5547469;32;33636;-86
2023/07/13 07:57:43;;;;;;;3.62;2.72;;;;;;;23.46;100.00;100076.12;5546628;32;33279;-86
2023/07/13 08:00:48;;;;;;;3.12;2.70;;;;;;;23.98;100.00;100075.94;5549200;32;33709;-86
2023/07/13 08:03:54;;;;;;;2.83;2.50;;;;;;;24.39;100.00;100089.41;5546157;32;33748;-86
2023/07/13 08:07:02;;;;;;;4.07;2.75;;;;;;;23.81;100.00;100087.63;5542136;32;35141;-86
2023/07/13 08:10:09;;;;;;;3.60;2.50;;;;;;;24.20;100.00;100083.34;5548888;32;33828;-85
2023/07/13 08:13:11;;;;;;;3.60;2.83;;;;;;;24.51;100.00;100089.88;5549189;32;33544;-85
2023/07/13 08:16:14;;;;;;;4.45;2.55;;;;;;;25.04;100.00;100083.88;5548869;32;34056;-87
2023/07/13 08:19:17;;;;;;;3.87;2.92;;;;;;;25.37;100.00;100064.69;5538021;32;33948;-87
2023/07/13 08:22:20;;;;;;;4.20;3.15;;;;;;;26.16;100.00;100072.66;5543361;32;33994;-87
2023/07/13 08:25:22;;;;;;;4.60;3.03;;;;;;;26.67;100.00;100077.34;5548054;32;33783;-87
2023/07/13 08:28:25;;;;;;;4.62;2.83;;;;;;;26.87;99.08;100085.75;5546251;32;34307;-87
2023/07/13 08:31:28;;;;;;;5.50;3.20;;;;;;;27.70;94.25;100083.69;5550737;32;34044;-88
2023/07/13 08:34:31;;;;;;;4.30;3.20;;;;;;;27.43;95.11;100081.56;5552776;32;34252;-87
2023/07/13 08:37:34;;;;;;;5.68;3.03;;;;;;;27.87;91.47;100088.84;5547140;32;34501;-88
2023/07/13 08:40:38;;;;;;;5.40;3.08;;;;;;;27.39;94.04;100071.22;5547672;32;33856;-88
2023/07/13 08:43:46;;;;;;;5.30;2.97;;;;;;;28.10;90.76;100073.09;5547568;32;34617;-88
2023/07/13 08:46:51;;;;;;;3.42;3.10;;;;;;;28.03;89.30;100066.75;5546491;32;34057;-88
2023/07/13 08:49:56;;;;;;;6.78;3.00;;;;;;;28.02;89.07;100072.41;5544012;32;34292;-88
2023/07/13 08:53:02;;;;;;;4.22;3.17;;;;;;;27.86;91.50;100079.84;5543368;32;33612;-87
2023/07/13 08:56:12;;;;;;;4.87;2.90;;;;;;;28.37;90.10;100076.00;5547575;32;33845;-88
2023/07/13 08:59:18;;;;;;;3.33;3.05;;;;;;;27.02;94.79;100083.03;5539508;32;34623;-87
2023/07/13 09:02:42;;;;;;;6.30;3.30;;;;;;;26.34;98.29;100078.59;5545986;32;33647;-87
2023/07/13 09:05:56;;;;;;;6.53;3.50;;;;;;;25.65;100.00;100083.12;5551155;32;34721;-87
2023/07/13 09:09:06;;;;;;;4.60;3.53;;;;;;;25.14;100.00;100076.38;5556827;32;33675;-86
2023/07/13 09:12:39;;;;;;;5.50;3.50;;;;;;;25.32;100.00;100077.09;5552327;32;34666;-90
2023/07/13 09:15:48;;;;;;;5.72;3.45;;;;;;;25.66;100.00;100078.56;5543020;32;33915;-85
2023/07/13 09:18:56;;;;;;;3.42;2.90;;;;;;;26.88;100.00;100083.84;5536883;32;33791;-85
2023/07/13 09:22:01;;;;;;;5.68;3.20;;;;;;;27.09;92.17;100079.53;5530335;32;34672;-85
2023/07/13 09:25:29;;;;;;;4.20;3.42;;;;;;;28.36;90.17;100078.94;5531372;32;34600;-86
2023/07/13 09:28:41;;;;;;;3.80;3.28;;;;;;;27.44;94.44;100083.22;5549965;32;33609;-85
2023/07/13 09:31:49;;;;;;;3.40;3.10;;;;;;;27.62;91.26;100079.25;5547545;32;34050;-85
2023/07/13 09:34:54;;;;;;;5.20;3.60;;;;;;;26.39;96.81;100078.00;5548763;32;34834;-84
2023/07/13 09:37:59;;;;;;;3.55;3.25;;;;;;;26.53;92.45;100089.06;5531880;32;34380;-86
2023/07/13 09:41:31;;;;;;;4.70;3.53;;;;;;;26.62;91.64;100086.09;5530872;32;34117;-85
2023/07/13 09:44:36;;;;;;;4.70;3.85;;;;;;;26.32;93.30;100087.97;5543552;32;34548;-86
2023/07/13 09:47:40;;;;;;;5.00;3.40;;;;;;;28.18;87.57;100099.34;5553668;32;34114;-86
2023/07/13 09:50:44;;;;;;;6.95;3.40;;;;;;;28.52;81.28;100108.59;5552078;32;33843;-86
2023/07/13 09:53:48;;;;;;;3.95;3.42;;;;;;;30.16;78.93;100110.69;5553630;32;34032;-86
2023/07/13 09:57:00;;;;;;;5.18;3.45;;;;;;;31.05;72.29;100108.28;5552079;32;33773;-86
2023/07/13 10:00:20;;;;;;;5.12;3.50;;;;;;;29.93;75.26;100120.12;5535529;32;33846;-91
2023/07/13 10:03:30;;;;;;;5.95;3.58;;;;;;;30.10;79.26;100106.88;5537982;32;34318;-86
2023/07/13 10:06:33;;;;;;;4.07;3.60;;;;;;;30.51;74.53;100103.00;5550685;32;33680;-87
2023/07/13 10:09:36;;;;;;;6.47;3.75;;;;;;;30.12;74.49;100094.69;5549152;32;34678;-87
2023/07/13 10:12:38;;;;;;;4.87;3.58;;;;;;;31.14;73.63;100103.41;5561903;32;33785;-86
2023/07/13 10:15:42;;;;;;;5.15;3.60;;;;;;;31.50;72.45;100102.97;5547452;32;34420;-86
2023/07/13 10:19:25;;;;;;;3.95;3.55;;;;;;;30.57;70.70;100095.00;5563895;32;33493;-86
2023/07/13 10:22:51;;;;;;;5.78;3.30;;;;;;;31.25;72.26;100115.53;5521173;32;32972;-87
2023/07/13 10:25:56;;;;;;;7.12;3.35;;;;;;;32.18;66.50;100103.25;5539215;32;33756;-87
2023/07/13 10:29:07;;;;;;;4.18;3.15;;;;;;;32.12;66.16;100105.84;5551279;32;33399;-87
2023/07/13 10:32:12;;;;;;;3.47;3.17;;;;;;;34.66;55.93;100111.66;5552296;32;34172;-87
2023/07/13 10:35:20;;;;;;;3.75;3.22;;;;;;;36.09;48.23;100120.25;5552093;32;34147;-87
2023/07/13 10:38:25;;;;;;;4.22;3.08;;;;;;;35.93;43.71;100117.25;5554855;32;33493;-86
2023/07/13 10:41:31;;;;;;;3.95;2.95;;;;;;;35.64;44.89;100128.37;5553728;32;33933;-86
2023/07/13 10:44:34;;;;;;;4.53;3.12;;;;;;;34.91;48.71;100127.03;5556253;32;34107;-84
2023/07/13 10:47:39;;;;;;;4.90;2.80;;;;;;;33.19;51.32;100119.38;5563895;32;33862;-84
2023/07/13 10:50:46;;;;;;;4.30;3.20;;;;;;;33.14;53.72;100115.69;5562309;32;33933;-88
2023/07/13 10:54:16;;;;;;;5.03;3.03;;;;;;;33.00;52.54;100113.12;5555461;32;34572;-90
2023/07/13 10:57:22;;;;;;;4.37;2.97;;;;;;;33.10;49.24;100119.94;5546000;32;33802;-86
2023/07/13 11:00:25;;;;;;;5.70;3.20;;;;;;;31.37;53.78;100115.69;5549780;32;33748;-86
2023/07/13 11:03:29;;;;;;;4.53;2.80;;;;;;;31.27;53.83;100126.31;5552955;32;33858;-86
2023/07/13 11:06:45;;;;;;;4.72;3.40;;;;;;;31.98;51.91;100110.59;5551758;32;33920;-86
2023/07/13 11:09:54;;;;;;;5.15;2.90;;;;;;;32.46;51.26;100110.16;5544061;32;33786;-87
2023/07/13 11:12:57;;;;;;;7.28;3.03;;;;;;;33.15;48.60;100104.47;5551431;32;33451;-87
2023/07/13 11:15:59;;;;;;;3.92;2.78;;;;;;;33.85;46.38;100120.53;5555156;32;33858;-85
2023/07/13 11:19:02;;;;;;;4.05;2.85;;;;;;;32.79;48.74;100111.69;5560647;32;34045;-85
2023/07/13 11:22:05;;;;;;;3.70;3.00;;;;;;;32.51;50.35;100121.28;5553068;32;35075;-85
2023/07/13 11:25:20;;;;;;;3.03;2.70;;;;;;;31.98;51.99;100118.03;5547467;32;33688;-87
2023/07/13 11:28:26;;;;;;;4.32;3.15;;;;;;;32.58;50.01;100113.81;5543824;32;33867;-85
2023/07/13 11:31:33;;;;;;;4.60;2.72;;;;;;;31.83;51.84;100104.63;5544528;32;34488;-86
2023/07/13 11:34:38;;;;;;;3.10;2.70;;;;;;;32.00;52.89;100099.41;5548744;32;34054;-87
2023/07/13 11:37:41;;;;;;;2.60;2.40;;;;;;;31.91;51.06;100101.59;5547125;32;33952;-87
2023/07/13 11:40:48;;;;;;;3.65;2.78;;;;;;;31.40;52.12;100103.47;5547246;32;34619;-86
2023/07/13 11:44:16;;;;;;;3.72;2.53;;;;;;;30.83;54.15;100096.81;5546675;32;33597;-87
2023/07/13 11:47:22;;;;;;;4.22;2.45;;;;;;;31.42;52.84;100084.91;5548243;32;32625;-86
2023/07/13 11:50:25;;;;;;;4.55;2.90;;;;;;;30.97;52.36;100102.22;5539544;32;33941;-86
2023/07/13 11:53:30;;;;;;;3.35;2.60;;;;;;;31.14;53.42;100105.28;5553034;32;33541;-85
2023/07/13 11:56:34;;;;;;;3.15;2.50;;;;;;;31.07;52.05;100097.09;5545011;32;34408;-91
2023/07/13 11:59:40;;;;;;;2.87;2.60;;;;;;;31.31;50.67;100102.88;5535630;32;35038;-90
2023/07/13 12:02:46;;;;;;;3.30;3.00;;;;;;;31.13;51.83;100107.19;5537262;32;33568;-87
2023/07/13 12:06:07;;;;;;;4.22;2.78;;;;;;;31.06;51.87;100104.50;5539938;32;34539;-87
2023/07/13 12:09:28;;;;;;;3.72;3.10;;;;;;;30.33;54.36;100100.12;5549255;32;34965;-86
2023/07/13 12:12:31;;;;;;;3.28;2.97;;;;;;;30.35;55.16;100092.53;5554800;32;34580;-87
2023/07/13 12:15:38;;;;;;;3.37;2.70;;;;;;;30.00;54.75;100096.34;5541852;32;34962;-87
2023/07/13 12:18:45;;;;;;;3.00;2.78;;;;;;;30.25;54.73;100087.50;5546070;32;33867;-87
2023/07/13 12:21:51;;;;;;;4.68;3.40;;;;;;;29.75;56.95;100080.59;5542652;32;33919;-86
2023/07/13 12:24:55;;;;;;;3.40;3.10;;;;;;;30.12;55.64;100081.00;5538993;32;34139;-87
2023/07/13 12:27:58;;;;;;;4.12;2.85;;;;;;;30.10;57.15;100094.06;5534924;32;33915;-87
2023/07/13 12:31:04;;;;;;;3.75;3.00;;;;;;;29.31;57.09;100085.59;5557884;32;33413;-87
2023/07/13 12:34:13;;;;;;;3.95;3.20;;;;;;;30.10;57.74;100091.34;5554888;32;35154;-86
2023/07/13 12:37:16;;;;;;;4.53;3.33;;;;;;;29.66;54.68;100090.91;5546570;32;33598;-87
2023/07/13 12:40:22;;;;;;;3.40;3.15;;;;;;;28.92;57.21;100093.50;5551895;32;33583;-87
2023/07/13 12:43:27;;;;;;;4.43;3.62;;;;;;;29.27;58.04;100079.69;5552495;32;34171;-87
2023/07/13 12:46:29;;;;;;;3.58;3.28;;;;;;;29.29;56.36;100068.56;5549300;32;34632;-88
2023/07/13 12:49:36;;;;;;;5.82;3.17;;;;;;;29.41;59.54;100066.06;5554044;32;34035;-87
2023/07/13 12:52:43;;;;;;;3.92;3.40;;;;;;;30.04;54.80;100070.28;5540541;32;33952;-87
2023/07/13 12:55:53;;;;;;;3.75;3.45;;;;;;;29.67;58.85;100075.34;5549324;32;33902;-88
2023/07/13 12:59:03;;;;;;;4.90;3.15;;;;;;;29.67;58.83;100075.34;5551152;32;33884;-86
2023/07/13 13:02:31;;;;;;;8.95;3.67;;;;;;;29.60;56.12;100075.34;5553266;32;34749;-85
2023/07/13 13:05:34;;;;;;;5.12;3.15;;;;;;;29.73;57.40;100069.06;5554594;32;33435;-86
2023/07/13 13:08:37;;;;;;;3.20;2.90;;;;;;;29.90;58.42;100063.97;5549076;32;33447;-87
2023/07/13 13:11:41;;;;;;;3.83;3.10;;;;;;;29.93;56.27;100071.78;5552227;32;33932;-86
2023/07/13 13:14:44;;;;;;;3.42;3.10;;;;;;;30.20;54.88;100073.63;5556406;32;34175;-86
2023/07/13 13:17:47;;;;;;;4.15;3.20;;;;;;;29.96;54.25;100062.31;5551953;32;34433;-86
2023/07/13 13:20:51;;;;;;;5.03;3.08;;;;;;;29.40;55.87;100058.91;5550460;32;33542;-86
2023/07/13 13:23:54;;;;;;;5.22;3.05;;;;;;;29.20;56.85;100057.00;5550969;32;34063;-86
2023/07/13 13:26:57;;;;;;;3.75;3.28;;;;;;;29.68;55.09;100053.28;5549904;32;34959;-86
2023/07/13 13:30:00;;;;;;;3.05;2.85;;;;;;;29.85;55.15;100050.09;5552774;32;34800;-87
2023/07/13 13:33:08;;;;;;;6.32;3.03;;;;;;;29.91;54.82;100056.63;5551101;32;34749;-86
2023/07/13 13:36:20;;;;;;;6.30;3.22;;;;;;;29.64;54.45;100054.75;5551014;32;33468;-86
2023/07/13 13:39:27;;;;;;;5.60;3.30;;;;;;;29.30;56.51;100057.44;5550626;32;33422;-86
2023/07/13 13:42:30;;;;;;;5.00;3.35;;;;;;;29.54;56.93;100057.91;5546687;32;33712;-86
2023/07/13 13:45:33;;;;;;;4.45;3.47;;;;;;;29.15;54.54;100060.34;5549990;32;33881;-86
2023/07/13 13:48:36;;;;;;;3.72;3.42;;;;;;;28.88;58.50;100045.81;5548895;32;34612;-87
2023/07/13 13:51:42;;;;;;;4.93;3.40;;;;;;;28.69;56.89;100056.41;5548080;32;34127;-87
2023/07/13 13:54:44;;;;;;;3.80;3.20;;;;;;;28.73;60.23;100056.84;5548894;32;34463;-87
2023/07/13 13:57:48;;;;;;;4.60;3.12;;;;;;;28.69;58.94;100059.16;5548979;32;34541;-87
2023/07/13 14:00:52;;;;;;;3.92;3.50;;;;;;;29.27;57.10;100051.56;5553742;32;33694;-86
2023/07/13 14:03:55;;;;;;;3.65;3.35;;;;;;;29.32;56.25;100046.31;5556704;32;34268;-86
2023/07/13 14:06:58;;;;;;;6.18;3.08;;;;;;;29.18;58.47;100040.00;5556216;32;34266;-86
2023/07/13 14:10:01;;;;;;;5.07;3.42;;;;;;;28.68;59.19;100057.47;5557635;32;33483;-86
2023/07/13 14:13:06;;;;;;;3.65;3.22;;;;;;;28.73;60.33;100065.03;5562121;32;34129;-86
2023/07/13 14:16:17;;;;;;;3.60;3.30;;;;;;;28.59;59.49;100064.13;5566125;32;35224;-86
2023/07/13 14:19:20;;;;;;;5.03;3.10;;;;;;;28.47;61.02;100052.97;5565403;32;34794;-86
2023/07/13 14:22:25;;;;;;;4.68;3.00;;;;;;;28.49;61.25;100067.25;5565795;32;34108;-86
2023/07/13 14:25:28;;;;;;;5.40;3.40;;;;;;;28.52;60.60;100054.03;5557031;32;34112;-86
2023/07/13 14:28:31;;;;;;;4.22;3.37;;;;;;;28.32;59.84;100055.84;5556611;32;33485;-86
2023/07/13 14:31:34;;;;;;;3.50;3.20;;;;;;;28.37;62.01;100062.34;5558484;32;34090;-86
2023/07/13 14:34:38;;;;;;;5.30;3.53;;;;;;;28.64;63.09;100056.19;5556748;32;34310;-86
2023/07/13 14:37:46;;;;;;;5.97;3.37;;;;;;;28.71;61.54;100065.22;5557903;32;33954;-86
2023/07/13 14:40:49;;;;;;;4.03;3.50;;;;;;;28.94;59.84;100082.34;5547953;32;33963;-86
2023/07/13 14:43:54;;;;;;;3.62;3.22;;;;;;;28.44;61.49;100077.91;5552836;32;33949;-89
2023/07/13 14:46:59;;;;;;;5.15;3.25;;;;;;;28.42;61.10;100091.78;5538394;32;32389;-90
2023/07/13 14:50:05;;;;;;;3.75;3.00;;;;;;;28.54;61.69;100085.72;5550039;32;33544;-90
2023/07/13 14:53:11;;;;;;;3.37;3.08;;;;;;;28.45;61.33;100090.53;5554544;32;34299;-86
2023/07/13 14:56:14;;;;;;;4.53;3.15;;;;;;;28.49;61.26;100097.25;5554177;32;34648;-86
2023/07/13 14:59:19;;;;;;;3.30;2.97;;;;;;;28.26;60.33;100101.13;5555744;32;34647;-86
2023/07/13 15:02:35;;;;;;;3.37;3.08;;;;;;;28.63;60.26;100104.47;5559083;32;35417;-86
2023/07/13 15:05:40;;;;;;;4.97;3.22;;;;;;;28.68;60.13;100098.41;5561485;32;34949;-86
2023/07/13 15:08:42;;;;;;;5.65;3.20;;;;;;;28.50;63.23;100085.28;5559818;32;33739;-86
2023/07/13 15:11:45;;;;;;;4.30;3.35;;;;;;;28.82;61.34;100087.53;5559170;32;33710;-86
2023/07/13 15:14:48;;;;;;;3.47;2.95;;;;;;;28.60;65.87;100091.22;5557475;32;34367;-85
2023/07/13 15:17:51;;;;;;;3.33;3.05;;;;;;;28.49;61.95;100100.84;5557343;32;33759;-85
2023/07/13 15:20:55;;;;;;;3.20;2.90;;;;;;;28.48;61.54;100117.38;5553148;32;33489;-86
2023/07/13 15:23:58;;;;;;;3.42;3.10;;;;;;;28.44;60.23;100124.28;5555726;32;34314;-85
